logo
App data

Wander No More

Wander No More is a Kinetic Novel (a visual novel without any choices) which centers around the life of Kouichirou Nabatame, a renowned samurai, and Chiyo, a young village girl. Wander No More tells the story of how these two met, became a family, and attempted to restore their lives to what they once were.
Store | Hub | SteamDB | Site
Developer: Zetsubou Publisher: Unwonted Studios
Genre: Free to Play, Indie, Simulation
Languages: English
Tags: Free to Play (79), Visual Novel (43), Indie (41), Anime (38), Simulation (36), Casual (12)
Category: Single-player, Full controller support
Release date: Feb 18, 2017
Free
Old userscore: 89% Owners: 20,000 .. 50,000
Followers: 3,578

Steam Spy is still in beta, so expect major bugs.

Owners data:

Access restricted.

This feature is only available to users with special access rights. Sorry.

If you want to proceed, you need to register or log in first and then back Steam Spy on Patreon. Look for Indie or Pro pledge.

Don't forget to use the same email as on Steam Spy!

Audience in 2 weeks:

Access restricted.

This feature is only available to users with special access rights. Sorry.

If you want to proceed, you need to register or log in first and then back Steam Spy on Patreon. Look for Indie or Pro pledge.

Don't forget to use the same email as on Steam Spy!

Peak daily concurrent players:

CCU data courtesy of SteamDB. Used with permission.

Hourly concurrent players:

Daily Twitch stats:

Hourly Twitch stats:

Followers over time

Access restricted.

This feature is only available to users with special access rights. Sorry.

If you want to proceed, you need to register or log in first and then back Steam Spy on Patreon. Look for Indie or Pro pledge.

Don't forget to use the same email as on Steam Spy!

Views for top 50 videos on YouTube for this game:

Games similar to this one:

# Game Release date
Price
Score rank
(Userscore / Metascore)
Owners
Players
Playtime (Median)
1 Red Stone Online Apr 2015 N/AN/A (N/A)114,0000%00:00 (00:00)
2 Lords of Magic: Special Edition Nov 19, 1997 $1.69N/A (N/A)46,0000%00:00 (00:00)
3 how do you Do It? Feb 27, 2015 FreeN/A (N/A)231,0000%00:00 (00:00)
4 Legend of Dungeon: Masters Nov 30, 2015 FreeN/A (N/A)117,0000%00:00 (00:00)
5 Break_In Apr 29, 2015 $9.99N/A (N/A)3,0000%00:00 (00:00)
6 Asdivine Hearts Feb 1, 2016 $1.99N/A (N/A)13,0000%00:00 (00:00)
7 Force of Elements Dec 29, 2015 FreeN/A (N/A)14,0000%00:00 (00:00)
8 Labyrinth Mar 7, 2016 N/AN/A (N/A)36,0000%00:00 (00:00)
9 Bitweb Jun 3, 2015 FreeN/A (N/A)55,0000%00:00 (00:00)
10 Metaverse Construction Kit Dec 6, 2015 FreeN/A (N/A)156,0000%00:00 (00:00)
11 9Dragons Feb 14, 2017 FreeN/A (N/A)60,0000%00:00 (00:00)
12 Carpe Diem Nov 30, 2015 FreeN/A (N/A)301,0004.55%00:03 (00:01)
13 RoShamBo Jul 14, 2016 FreeN/A (N/A)94,0000%00:00 (00:00)
14 Battlegrounds of Eldhelm Oct 22, 2014 N/AN/A (N/A)104,0000%00:00 (00:00)
15 Atom Universe Dec 25, 2017 FreeN/A (N/A)111,0000%00:00 (00:00)
16 Among Ripples Jan 22, 2015 FreeN/A (N/A)326,0000%00:00 (00:00)
17 Cloney Mar 15, 2014 FreeN/A (N/A)99,0000%00:00 (00:00)
18 Lost girl`s [diary] Mar 25, 2016 FreeN/A (N/A)100,0000%00:00 (00:00)
19 Blocks by Google Jul 6, 2017 FreeN/A (N/A)117,0000%00:00 (00:00)
20 The Bottom of the Well Jan 25, 2016 FreeN/A (N/A)75,0000%00:00 (00:00)
21 Racecar.io Oct 18, 2016 FreeN/A (N/A)68,0000%00:00 (00:00)
22 Rock Paper Scissors Champion Feb 27, 2016 FreeN/A (N/A)80,0000%00:00 (00:00)
23 Drift GEAR Racing Free Nov 16, 2016 FreeN/A (N/A)75,0000%00:00 (00:00)
24 Atulos Online Apr 30, 2016 FreeN/A (N/A)48,0000%00:00 (00:00)
25 Terminal Hacker Dec 1, 2016 FreeN/A (N/A)176,0000%00:00 (00:00)
26 Skyreach Apr 29, 2016 FreeN/A (N/A)83,0000%00:00 (00:00)
27 Totemori Feb 10, 2017 FreeN/A (N/A)82,0000%00:00 (00:00)
28 Campaign Clicker Oct 3, 2016 FreeN/A (N/A)90,0000%00:00 (00:00)
29 Kio's Adventure Apr 7, 2017 $1.69N/A (N/A)88,0000%00:00 (00:00)
30 Jonah's Path Jul 10, 2016 FreeN/A (N/A)32,0000%00:00 (00:00)
31 SOLRAVEN Mar 1, 2016 FreeN/A (N/A)9,0000%00:00 (00:00)
32 Quanero VR Aug 12, 2016 FreeN/A (N/A)49,0000%00:00 (00:00)
33 Fantasy Tales Online May 5, 2016 FreeN/A (N/A)163,0000%00:00 (00:00)
34 You Have 10 Seconds 2 Aug 24, 2016 FreeN/A (N/A)154,0000%00:00 (00:00)
35 FlyingRock: Arena Jun 19, 2017 FreeN/A (N/A)32,0000%00:00 (00:00)
36 Nethergate: Resurrection Mar 1, 2008 $1.49N/A (N/A)56,0000%00:00 (00:00)
37 Star Wolves Mar 2, 2010 $0.79N/A (N/A)62,0000%00:00 (00:00)
38 Realms of Arkania: Blade of Destiny Jul 29, 2013 $14.99N/A (N/A)34,0000%00:00 (00:00)
39 ArcaniA: Fall of Setarrif Oct 24, 2011 $14.99N/A (N/A)171,0000%00:00 (00:00)
40 Anachronox Jun 27, 2001 $0.97N/A (N/A/77%)300,0000%00:00 (00:00)
41 Breath of Death VII Jul 13, 2011 $1.49N/A (N/A)829,0000%00:00 (00:00)
42 Omikron: The Nomad Soul Nov 2, 1999 $1.49N/A (N/A)111,0000%00:00 (00:00)
43 Geneforge 2 Jul 1, 2003 $5.99N/A (N/A)92,0000%00:00 (00:00)
44 Wizardry 6: Bane of the Cosmic Forge Sep 10, 2013 $4.99N/A (N/A)94,0000%00:00 (00:00)
45 Geneforge 3 Apr 1, 2005 $5.99N/A (N/A)89,0000%00:00 (00:00)
46 Wizardry 7: Crusaders of the Dark Savant Sep 10, 2013 $4.99N/A (N/A)98,0000%00:00 (00:00)
47 Geneforge 5: Overthrow Nov 1, 2008 $5.99N/A (N/A)107,0000%00:00 (00:00)
48 Iesabel Jul 7, 2013 $4.99N/A (N/A)224,0000%00:00 (00:00)
49 R.A.W. Realms of Ancient War Oct 11, 2012 $14.99N/A (N/A)357,0000%00:00 (00:00)
50 Freedom Force May 29, 2009 $1.24N/A (N/A/90%)244,0000%00:00 (00:00)
51 ROSE Online Oct 23, 2012 N/AN/A (N/A)432,0000%00:00 (00:00)
52 Freedom Force vs. the Third Reich May 29, 2009 $1.24N/A (N/A)237,0000%00:00 (00:00)
53 KnightShift Dec 31, 2003 $2.09N/A (N/A)892,0000%00:00 (00:00)
54 ACE - Arena: Cyber Evolution Aug 18, 2014 N/AN/A (N/A)381,0000%00:00 (00:00)
55 Dofus Nov 15, 2016 N/AN/A (N/A/72%)86,0000%00:00 (00:00)
56 A.I.M.2 Clan Wars Aug 18, 2007 $0.68N/A (N/A)58,0000%00:00 (00:00)
57 Max Gentlemen Aug 21, 2014 FreeN/A (N/A)169,0000%00:00 (00:00)
58 Floating Point Jun 6, 2014 N/AN/A (N/A)834,0000%00:00 (00:00)
59 Two Brothers Dec 3, 2013 N/AN/A (N/A/57%)83,0000%00:00 (00:00)
60 Trapped Dead: Lockdown Mar 20, 2015 $0.99N/A (N/A)56,0000%00:00 (00:00)
61 Windforge Mar 11, 2014 $9.99N/A (N/A/53%)67,0000%00:00 (00:00)
62 Data Hacker: Initiation Jul 21, 2014 $0.5N/A (N/A)650,0000%00:00 (00:00)
63 Anarchy Arcade Sep 3, 2014 FreeN/A (N/A)671,0000%00:00 (00:00)
64 Darklands Oct 17, 2014 $3.49N/A (N/A)19,0000%00:00 (00:00)
65 The Memory of Eldurim Feb 7, 2014 $0.99N/A (N/A)4,0000%00:00 (00:00)
66 Heroes of Havoc: Idle Adventures Dec 15, 2016 FreeN/A (N/A)80,0000%00:00 (00:00)
67 Arcane Worlds Jan 28, 2014 $9.99N/A (N/A)30,0000%00:00 (00:00)
68 Gorky 17 Dec 31, 1999 $1.99N/A (N/A)402,0000%00:00 (00:00)
69 Soulbringer Jun 30, 2000 $0.74N/A (N/A/70%)75,0000%00:00 (00:00)

Tags over time:

Access restricted.

This feature is only available to users with special access rights. Sorry.

If you want to proceed, you need to register or log in first and then back Steam Spy on Patreon. Look for Indie or Pro pledge.

Don't forget to use the same email as on Steam Spy!

Owners of this game also own:

Access restricted.

This feature is only available to users with special access rights. Sorry.

If you want to proceed, you need to register or log in first and then back Steam Spy on Patreon. Look for Indie or Pro pledge.

Don't forget to use the same email as on Steam Spy!

Playtime distribution:

Access restricted.

This feature is only available to users with special access rights. Sorry.

If you want to proceed, you need to register or log in first and then back Steam Spy on Patreon. Look for Indie or Pro pledge.

Don't forget to use the same email as on Steam Spy!

Playtime (2 weeks):

Access restricted.

This feature is only available to users with special access rights. Sorry.

If you want to proceed, you need to register or log in first and then back Steam Spy on Patreon. Look for Indie or Pro pledge.

Don't forget to use the same email as on Steam Spy!

User reviews:

Login required.

Please register or log in to see this information.